sensor_id;sensor_type;location;lat;lon;timestamp;P1;durP1;ratioP1;P2;durP2;ratioP2
55292;SDS011;41157;53.560;10.098;2023-03-31T00:02:10;23.30;;;7.13;;
55292;SDS011;41157;53.560;10.098;2023-03-31T00:04:38;18.80;;;5.70;;
55292;SDS011;41157;53.560;10.098;2023-03-31T00:07:10;18.03;;;4.03;;
55292;SDS011;41157;53.560;10.098;2023-03-31T00:09:38;18.33;;;4.27;;
55292;SDS011;41157;53.560;10.098;2023-03-31T00:12:06;20.33;;;3.87;;
55292;SDS011;41157;53.560;10.098;2023-03-31T00:14:33;20.10;;;4.13;;
55292;SDS011;41157;53.560;10.098;2023-03-31T00:17:00;14.33;;;3.67;;
55292;SDS011;41157;53.560;10.098;2023-03-31T00:19:28;23.07;;;3.80;;
55292;SDS011;41157;53.560;10.098;2023-03-31T00:21:57;15.80;;;3.70;;
55292;SDS011;41157;53.560;10.098;2023-03-31T00:24:26;24.10;;;4.03;;
55292;SDS011;41157;53.560;10.098;2023-03-31T00:26:57;17.47;;;3.83;;
55292;SDS011;41157;53.560;10.098;2023-03-31T00:29:25;16.03;;;4.03;;
55292;SDS011;41157;53.560;10.098;2023-03-31T00:31:52;14.97;;;3.73;;
55292;SDS011;41157;53.560;10.098;2023-03-31T00:34:19;21.50;;;4.43;;
55292;SDS011;41157;53.560;10.098;2023-03-31T00:36:46;23.83;;;4.47;;
55292;SDS011;41157;53.560;10.098;2023-03-31T00:39:14;15.13;;;4.00;;
55292;SDS011;41157;53.560;10.098;2023-03-31T00:41:41;11.73;;;3.57;;
55292;SDS011;41157;53.560;10.098;2023-03-31T00:44:11;19.73;;;4.67;;
55292;SDS011;41157;53.560;10.098;2023-03-31T00:46:43;19.10;;;3.83;;
55292;SDS011;41157;53.560;10.098;2023-03-31T00:49:13;15.57;;;4.13;;
55292;SDS011;41157;53.560;10.098;2023-03-31T00:51:42;19.50;;;4.43;;
55292;SDS011;41157;53.560;10.098;2023-03-31T00:54:10;20.33;;;4.47;;
55292;SDS011;41157;53.560;10.098;2023-03-31T00:56:38;14.50;;;4.23;;
55292;SDS011;41157;53.560;10.098;2023-03-31T00:59:06;18.40;;;4.60;;
55292;SDS011;41157;53.560;10.098;2023-03-31T01:01:36;21.17;;;3.73;;
55292;SDS011;41157;53.560;10.098;2023-03-31T01:04:06;21.77;;;4.40;;
55292;SDS011;41157;53.560;10.098;2023-03-31T01:06:34;22.63;;;4.60;;
55292;SDS011;41157;53.560;10.098;2023-03-31T01:09:04;23.07;;;4.80;;
55292;SDS011;41157;53.560;10.098;2023-03-31T01:11:31;20.20;;;4.60;;
55292;SDS011;41157;53.560;10.098;2023-03-31T01:13:59;15.57;;;4.03;;
55292;SDS011;41157;53.560;10.098;2023-03-31T01:16:28;19.30;;;4.33;;
55292;SDS011;41157;53.560;10.098;2023-03-31T01:18:56;21.13;;;4.33;;
55292;SDS011;41157;53.560;10.098;2023-03-31T01:21:32;18.43;;;4.20;;
55292;SDS011;41157;53.560;10.098;2023-03-31T01:27:13;19.23;;;3.90;;
55292;SDS011;41157;53.560;10.098;2023-03-31T01:29:52;20.90;;;4.43;;
55292;SDS011;41157;53.560;10.098;2023-03-31T01:32:29;16.90;;;4.07;;
55292;SDS011;41157;53.560;10.098;2023-03-31T01:38:16;25.60;;;4.73;;
55292;SDS011;41157;53.560;10.098;2023-03-31T01:41:01;19.50;;;3.60;;
55292;SDS011;41157;53.560;10.098;2023-03-31T01:43:32;18.77;;;4.20;;
55292;SDS011;41157;53.560;10.098;2023-03-31T01:46:04;18.60;;;3.80;;
55292;SDS011;41157;53.560;10.098;2023-03-31T01:48:37;18.10;;;4.47;;
55292;SDS011;41157;53.560;10.098;2023-03-31T01:51:06;20.83;;;4.03;;
55292;SDS011;41157;53.560;10.098;2023-03-31T01:53:39;22.03;;;4.40;;
55292;SDS011;41157;53.560;10.098;2023-03-31T01:56:13;17.87;;;4.73;;
55292;SDS011;41157;53.560;10.098;2023-03-31T01:58:42;21.10;;;4.07;;
55292;SDS011;41157;53.560;10.098;2023-03-31T02:01:12;13.80;;;3.80;;
55292;SDS011;41157;53.560;10.098;2023-03-31T02:03:42;18.93;;;4.07;;
55292;SDS011;41157;53.560;10.098;2023-03-31T02:06:13;15.37;;;4.33;;
55292;SDS011;41157;53.560;10.098;2023-03-31T02:08:42;13.27;;;4.23;;
55292;SDS011;41157;53.560;10.098;2023-03-31T02:11:11;18.00;;;4.13;;
55292;SDS011;41157;53.560;10.098;2023-03-31T02:13:39;16.53;;;4.13;;
55292;SDS011;41157;53.560;10.098;2023-03-31T02:16:09;21.70;;;5.00;;
55292;SDS011;41157;53.560;10.098;2023-03-31T02:18:36;19.13;;;4.57;;
55292;SDS011;41157;53.560;10.098;2023-03-31T02:21:06;13.43;;;4.20;;
55292;SDS011;41157;53.560;10.098;2023-03-31T02:23:33;16.60;;;4.80;;
55292;SDS011;41157;53.560;10.098;2023-03-31T02:26:03;18.83;;;4.87;;
55292;SDS011;41157;53.560;10.098;2023-03-31T02:28:32;15.33;;;4.37;;
55292;SDS011;41157;53.560;10.098;2023-03-31T02:31:05;20.13;;;4.37;;
55292;SDS011;41157;53.560;10.098;2023-03-31T02:33:33;13.43;;;4.70;;
55292;SDS011;41157;53.560;10.098;2023-03-31T02:36:00;13.57;;;4.73;;
55292;SDS011;41157;53.560;10.098;2023-03-31T02:38:28;18.80;;;5.07;;
55292;SDS011;41157;53.560;10.098;2023-03-31T02:40:58;13.87;;;4.40;;
55292;SDS011;41157;53.560;10.098;2023-03-31T02:43:25;13.93;;;4.40;;
55292;SDS011;41157;53.560;10.098;2023-03-31T02:45:54;16.27;;;4.60;;
55292;SDS011;41157;53.560;10.098;2023-03-31T02:48:22;14.07;;;4.70;;
55292;SDS011;41157;53.560;10.098;2023-03-31T02:50:54;16.43;;;4.80;;
55292;SDS011;41157;53.560;10.098;2023-03-31T02:53:24;17.10;;;5.00;;
55292;SDS011;41157;53.560;10.098;2023-03-31T02:55:58;18.33;;;4.73;;
55292;SDS011;41157;53.560;10.098;2023-03-31T02:58:33;17.57;;;4.77;;
55292;SDS011;41157;53.560;10.098;2023-03-31T03:01:10;16.87;;;4.70;;
55292;SDS011;41157;53.560;10.098;2023-03-31T03:03:44;12.30;;;4.67;;
55292;SDS011;41157;53.560;10.098;2023-03-31T03:06:17;11.67;;;4.10;;
55292;SDS011;41157;53.560;10.098;2023-03-31T03:08:51;11.10;;;3.97;;
55292;SDS011;41157;53.560;10.098;2023-03-31T03:11:21;14.97;;;4.60;;
55292;SDS011;41157;53.560;10.098;2023-03-31T03:13:51;16.27;;;4.70;;
55292;SDS011;41157;53.560;10.098;2023-03-31T03:16:23;13.60;;;4.33;;
55292;SDS011;41157;53.560;10.098;2023-03-31T03:18:55;13.13;;;4.60;;
55292;SDS011;41157;53.560;10.098;2023-03-31T03:21:22;22.60;;;5.27;;
55292;SDS011;41157;53.560;10.098;2023-03-31T03:23:49;15.80;;;4.73;;
55292;SDS011;41157;53.560;10.098;2023-03-31T03:26:16;13.10;;;4.43;;
55292;SDS011;41157;53.560;10.098;2023-03-31T03:28:45;17.87;;;4.90;;
55292;SDS011;41157;53.560;10.098;2023-03-31T03:31:13;18.00;;;5.37;;
55292;SDS011;41157;53.560;10.098;2023-03-31T03:33:42;19.27;;;5.10;;
55292;SDS011;41157;53.560;10.098;2023-03-31T03:36:09;15.33;;;5.27;;
55292;SDS011;41157;53.560;10.098;2023-03-31T03:38:36;15.30;;;4.73;;
55292;SDS011;41157;53.560;10.098;2023-03-31T03:41:03;16.70;;;5.47;;
55292;SDS011;41157;53.560;10.098;2023-03-31T03:43:30;13.00;;;5.03;;
55292;SDS011;41157;53.560;10.098;2023-03-31T03:45:57;15.97;;;5.00;;
55292;SDS011;41157;53.560;10.098;2023-03-31T03:48:24;11.63;;;5.50;;
55292;SDS011;41157;53.560;10.098;2023-03-31T03:50:53;12.00;;;4.87;;
55292;SDS011;41157;53.560;10.098;2023-03-31T03:53:21;18.63;;;6.27;;
55292;SDS011;41157;53.560;10.098;2023-03-31T03:55:48;14.90;;;5.40;;
55292;SDS011;41157;53.560;10.098;2023-03-31T03:58:15;15.97;;;5.40;;
55292;SDS011;41157;53.560;10.098;2023-03-31T04:00:43;12.03;;;4.50;;
55292;SDS011;41157;53.560;10.098;2023-03-31T04:03:11;14.50;;;5.40;;
55292;SDS011;41157;53.560;10.098;2023-03-31T04:05:38;24.13;;;5.43;;
55292;SDS011;41157;53.560;10.098;2023-03-31T04:08:06;12.40;;;5.27;;
55292;SDS011;41157;53.560;10.098;2023-03-31T04:10:34;15.43;;;5.77;;
55292;SDS011;41157;53.560;10.098;2023-03-31T04:13:01;16.17;;;6.10;;
55292;SDS011;41157;53.560;10.098;2023-03-31T04:15:28;12.23;;;5.10;;
55292;SDS011;41157;53.560;10.098;2023-03-31T04:17:55;19.73;;;5.93;;
55292;SDS011;41157;53.560;10.098;2023-03-31T04:20:22;15.03;;;5.90;;
55292;SDS011;41157;53.560;10.098;2023-03-31T04:22:51;13.23;;;5.53;;
55292;SDS011;41157;53.560;10.098;2023-03-31T04:25:20;16.20;;;6.00;;
55292;SDS011;41157;53.560;10.098;2023-03-31T04:27:47;16.80;;;6.67;;
55292;SDS011;41157;53.560;10.098;2023-03-31T04:30:19;19.00;;;6.37;;
55292;SDS011;41157;53.560;10.098;2023-03-31T04:32:48;18.90;;;6.53;;
55292;SDS011;41157;53.560;10.098;2023-03-31T04:35:15;18.17;;;6.53;;
55292;SDS011;41157;53.560;10.098;2023-03-31T04:37:44;17.17;;;5.97;;
55292;SDS011;41157;53.560;10.098;2023-03-31T04:40:11;15.87;;;7.03;;
55292;SDS011;41157;53.560;10.098;2023-03-31T04:42:40;15.07;;;7.23;;
55292;SDS011;41157;53.560;10.098;2023-03-31T04:45:07;21.30;;;7.10;;
55292;SDS011;41157;53.560;10.098;2023-03-31T04:47:34;15.63;;;7.10;;
55292;SDS011;41157;53.560;10.098;2023-03-31T04:50:02;14.73;;;7.47;;
55292;SDS011;41157;53.560;10.098;2023-03-31T04:52:29;14.40;;;6.77;;
55292;SDS011;41157;53.560;10.098;2023-03-31T04:54:56;16.90;;;7.83;;
55292;SDS011;41157;53.560;10.098;2023-03-31T04:57:26;14.63;;;7.20;;
55292;SDS011;41157;53.560;10.098;2023-03-31T04:59:54;16.63;;;7.30;;
55292;SDS011;41157;53.560;10.098;2023-03-31T05:02:21;17.13;;;8.13;;
55292;SDS011;41157;53.560;10.098;2023-03-31T05:04:48;18.77;;;7.77;;
55292;SDS011;41157;53.560;10.098;2023-03-31T05:07:16;17.97;;;7.73;;
55292;SDS011;41157;53.560;10.098;2023-03-31T05:09:43;19.80;;;8.30;;
55292;SDS011;41157;53.560;10.098;2023-03-31T05:12:10;21.17;;;8.33;;
55292;SDS011;41157;53.560;10.098;2023-03-31T05:14:38;19.90;;;9.00;;
55292;SDS011;41157;53.560;10.098;2023-03-31T05:17:06;19.40;;;8.27;;
55292;SDS011;41157;53.560;10.098;2023-03-31T05:19:33;17.50;;;7.53;;
55292;SDS011;41157;53.560;10.098;2023-03-31T05:22:00;16.57;;;8.50;;
55292;SDS011;41157;53.560;10.098;2023-03-31T05:24:27;24.03;;;8.10;;
55292;SDS011;41157;53.560;10.098;2023-03-31T05:26:55;20.50;;;8.47;;
55292;SDS011;41157;53.560;10.098;2023-03-31T05:29:23;17.97;;;8.20;;
55292;SDS011;41157;53.560;10.098;2023-03-31T05:31:50;19.53;;;8.50;;
55292;SDS011;41157;53.560;10.098;2023-03-31T05:34:19;18.93;;;8.50;;
55292;SDS011;41157;53.560;10.098;2023-03-31T05:36:46;20.30;;;8.27;;
55292;SDS011;41157;53.560;10.098;2023-03-31T05:39:17;17.37;;;7.40;;
55292;SDS011;41157;53.560;10.098;2023-03-31T05:41:45;17.10;;;7.73;;
55292;SDS011;41157;53.560;10.098;2023-03-31T05:44:12;23.03;;;8.13;;
55292;SDS011;41157;53.560;10.098;2023-03-31T05:46:40;16.90;;;7.43;;
55292;SDS011;41157;53.560;10.098;2023-03-31T05:49:07;14.97;;;7.33;;
55292;SDS011;41157;53.560;10.098;2023-03-31T05:51:36;15.20;;;7.23;;
55292;SDS011;41157;53.560;10.098;2023-03-31T05:54:03;15.40;;;7.27;;
55292;SDS011;41157;53.560;10.098;2023-03-31T05:56:31;20.40;;;7.53;;
55292;SDS011;41157;53.560;10.098;2023-03-31T05:58:58;13.27;;;7.10;;
55292;SDS011;41157;53.560;10.098;2023-03-31T06:01:25;19.97;;;6.40;;
55292;SDS011;41157;53.560;10.098;2023-03-31T06:03:54;16.43;;;6.70;;
55292;SDS011;41157;53.560;10.098;2023-03-31T06:06:21;19.23;;;7.03;;
55292;SDS011;41157;53.560;10.098;2023-03-31T06:08:50;15.70;;;6.80;;
55292;SDS011;41157;53.560;10.098;2023-03-31T06:11:18;12.23;;;5.70;;
55292;SDS011;41157;53.560;10.098;2023-03-31T06:13:46;19.47;;;6.27;;
55292;SDS011;41157;53.560;10.098;2023-03-31T06:16:14;18.57;;;6.50;;
55292;SDS011;41157;53.560;10.098;2023-03-31T06:18:42;18.50;;;6.93;;
55292;SDS011;41157;53.560;10.098;2023-03-31T06:21:09;17.10;;;6.20;;
55292;SDS011;41157;53.560;10.098;2023-03-31T06:23:38;21.03;;;6.57;;
55292;SDS011;41157;53.560;10.098;2023-03-31T06:26:07;19.90;;;7.13;;
55292;SDS011;41157;53.560;10.098;2023-03-31T06:28:34;15.70;;;6.97;;
55292;SDS011;41157;53.560;10.098;2023-03-31T06:31:02;13.20;;;6.40;;
55292;SDS011;41157;53.560;10.098;2023-03-31T06:33:29;21.27;;;6.60;;
55292;SDS011;41157;53.560;10.098;2023-03-31T06:35:56;16.43;;;6.40;;
55292;SDS011;41157;53.560;10.098;2023-03-31T06:38:25;16.77;;;6.10;;
55292;SDS011;41157;53.560;10.098;2023-03-31T06:40:53;13.03;;;5.93;;
55292;SDS011;41157;53.560;10.098;2023-03-31T06:43:22;15.30;;;6.40;;
55292;SDS011;41157;53.560;10.098;2023-03-31T06:45:52;24.47;;;7.00;;
55292;SDS011;41157;53.560;10.098;2023-03-31T06:48:20;18.93;;;6.27;;
55292;SDS011;41157;53.560;10.098;2023-03-31T06:50:47;16.37;;;6.47;;
55292;SDS011;41157;53.560;10.098;2023-03-31T06:53:14;16.37;;;5.80;;
55292;SDS011;41157;53.560;10.098;2023-03-31T06:55:41;15.70;;;6.17;;
55292;SDS011;41157;53.560;10.098;2023-03-31T06:58:08;18.57;;;6.20;;
55292;SDS011;41157;53.560;10.098;2023-03-31T07:00:37;15.17;;;5.47;;
55292;SDS011;41157;53.560;10.098;2023-03-31T07:03:05;15.57;;;6.03;;
55292;SDS011;41157;53.560;10.098;2023-03-31T07:05:32;13.10;;;6.03;;
55292;SDS011;41157;53.560;10.098;2023-03-31T07:08:00;12.47;;;5.60;;
55292;SDS011;41157;53.560;10.098;2023-03-31T07:10:27;20.23;;;6.30;;
55292;SDS011;41157;53.560;10.098;2023-03-31T07:12:55;10.50;;;5.70;;
55292;SDS011;41157;53.560;10.098;2023-03-31T07:15:22;14.70;;;5.90;;
55292;SDS011;41157;53.560;10.098;2023-03-31T07:17:51;14.50;;;6.07;;
55292;SDS011;41157;53.560;10.098;2023-03-31T07:20:26;13.27;;;5.70;;
55292;SDS011;41157;53.560;10.098;2023-03-31T07:22:54;14.67;;;5.47;;
55292;SDS011;41157;53.560;10.098;2023-03-31T07:25:21;16.80;;;6.30;;
55292;SDS011;41157;53.560;10.098;2023-03-31T07:27:48;10.83;;;5.50;;
55292;SDS011;41157;53.560;10.098;2023-03-31T07:30:16;13.73;;;5.90;;
55292;SDS011;41157;53.560;10.098;2023-03-31T07:32:45;15.03;;;5.77;;
55292;SDS011;41157;53.560;10.098;2023-03-31T07:35:14;14.73;;;5.20;;
55292;SDS011;41157;53.560;10.098;2023-03-31T07:37:41;8.60;;;4.83;;
55292;SDS011;41157;53.560;10.098;2023-03-31T07:40:10;13.83;;;5.47;;
55292;SDS011;41157;53.560;10.098;2023-03-31T07:42:46;10.30;;;4.67;;
55292;SDS011;41157;53.560;10.098;2023-03-31T07:45:15;13.60;;;4.97;;
55292;SDS011;41157;53.560;10.098;2023-03-31T07:47:43;12.47;;;4.80;;
55292;SDS011;41157;53.560;10.098;2023-03-31T07:50:11;13.50;;;5.03;;
55292;SDS011;41157;53.560;10.098;2023-03-31T07:52:39;11.70;;;5.17;;
55292;SDS011;41157;53.560;10.098;2023-03-31T07:55:07;11.50;;;4.80;;
55292;SDS011;41157;53.560;10.098;2023-03-31T07:57:35;14.30;;;5.37;;
55292;SDS011;41157;53.560;10.098;2023-03-31T08:00:02;15.63;;;4.90;;
55292;SDS011;41157;53.560;10.098;2023-03-31T08:02:34;12.10;;;4.83;;
55292;SDS011;41157;53.560;10.098;2023-03-31T08:05:01;12.60;;;4.50;;
55292;SDS011;41157;53.560;10.098;2023-03-31T08:07:29;15.57;;;5.40;;
55292;SDS011;41157;53.560;10.098;2023-03-31T08:09:57;12.37;;;4.73;;
55292;SDS011;41157;53.560;10.098;2023-03-31T08:12:24;11.30;;;4.30;;
55292;SDS011;41157;53.560;10.098;2023-03-31T08:14:51;12.50;;;4.70;;
55292;SDS011;41157;53.560;10.098;2023-03-31T08:17:18;12.23;;;4.60;;
55292;SDS011;41157;53.560;10.098;2023-03-31T08:19:45;16.23;;;8.37;;
55292;SDS011;41157;53.560;10.098;2023-03-31T08:22:13;14.70;;;5.10;;
55292;SDS011;41157;53.560;10.098;2023-03-31T08:24:40;9.60;;;4.13;;
55292;SDS011;41157;53.560;10.098;2023-03-31T08:27:09;8.10;;;4.20;;
55292;SDS011;41157;53.560;10.098;2023-03-31T08:29:36;10.40;;;4.07;;
55292;SDS011;41157;53.560;10.098;2023-03-31T08:32:03;8.17;;;4.03;;
55292;SDS011;41157;53.560;10.098;2023-03-31T08:34:31;10.27;;;3.43;;
55292;SDS011;41157;53.560;10.098;2023-03-31T08:36:58;9.33;;;3.30;;
55292;SDS011;41157;53.560;10.098;2023-03-31T08:39:26;10.47;;;3.63;;
55292;SDS011;41157;53.560;10.098;2023-03-31T08:41:53;8.40;;;3.23;;
55292;SDS011;41157;53.560;10.098;2023-03-31T08:44:25;8.13;;;3.40;;
55292;SDS011;41157;53.560;10.098;2023-03-31T08:46:55;7.40;;;3.20;;
55292;SDS011;41157;53.560;10.098;2023-03-31T08:49:23;9.20;;;2.90;;
55292;SDS011;41157;53.560;10.098;2023-03-31T08:51:52;7.60;;;3.57;;
55292;SDS011;41157;53.560;10.098;2023-03-31T08:54:28;7.33;;;3.50;;
55292;SDS011;41157;53.560;10.098;2023-03-31T08:56:56;8.63;;;3.00;;
55292;SDS011;41157;53.560;10.098;2023-03-31T08:59:39;9.07;;;3.17;;
55292;SDS011;41157;53.560;10.098;2023-03-31T09:02:09;11.43;;;3.53;;
55292;SDS011;41157;53.560;10.098;2023-03-31T09:04:45;9.53;;;2.90;;
55292;SDS011;41157;53.560;10.098;2023-03-31T09:07:17;9.30;;;3.17;;
55292;SDS011;41157;53.560;10.098;2023-03-31T09:09:48;8.43;;;2.87;;
55292;SDS011;41157;53.560;10.098;2023-03-31T09:12:18;8.10;;;2.80;;
55292;SDS011;41157;53.560;10.098;2023-03-31T09:14:47;7.77;;;2.40;;
55292;SDS011;41157;53.560;10.098;2023-03-31T09:17:17;10.67;;;2.90;;
55292;SDS011;41157;53.560;10.098;2023-03-31T09:19:49;10.27;;;2.60;;
55292;SDS011;41157;53.560;10.098;2023-03-31T09:22:19;6.93;;;2.67;;
55292;SDS011;41157;53.560;10.098;2023-03-31T09:24:51;6.73;;;2.77;;
55292;SDS011;41157;53.560;10.098;2023-03-31T09:27:18;6.87;;;2.73;;
55292;SDS011;41157;53.560;10.098;2023-03-31T09:29:48;11.07;;;3.17;;
55292;SDS011;41157;53.560;10.098;2023-03-31T09:32:17;8.17;;;2.73;;
55292;SDS011;41157;53.560;10.098;2023-03-31T09:34:45;7.83;;;2.67;;
55292;SDS011;41157;53.560;10.098;2023-03-31T09:37:13;11.50;;;3.23;;
55292;SDS011;41157;53.560;10.098;2023-03-31T09:39:40;10.00;;;2.73;;
55292;SDS011;41157;53.560;10.098;2023-03-31T09:42:09;8.63;;;2.97;;
55292;SDS011;41157;53.560;10.098;2023-03-31T09:44:36;8.77;;;2.80;;
55292;SDS011;41157;53.560;10.098;2023-03-31T09:47:08;10.57;;;3.40;;
55292;SDS011;41157;53.560;10.098;2023-03-31T09:49:37;8.23;;;3.03;;
55292;SDS011;41157;53.560;10.098;2023-03-31T09:52:05;7.37;;;2.93;;
55292;SDS011;41157;53.560;10.098;2023-03-31T09:54:34;6.67;;;2.90;;
55292;SDS011;41157;53.560;10.098;2023-03-31T09:57:03;12.80;;;3.10;;
55292;SDS011;41157;53.560;10.098;2023-03-31T09:59:38;8.40;;;3.00;;
55292;SDS011;41157;53.560;10.098;2023-03-31T10:02:19;8.40;;;2.80;;
55292;SDS011;41157;53.560;10.098;2023-03-31T10:04:47;6.67;;;2.50;;
55292;SDS011;41157;53.560;10.098;2023-03-31T10:07:24;5.27;;;2.70;;
55292;SDS011;41157;53.560;10.098;2023-03-31T10:09:53;10.40;;;2.60;;
55292;SDS011;41157;53.560;10.098;2023-03-31T10:12:21;9.37;;;3.03;;
55292;SDS011;41157;53.560;10.098;2023-03-31T10:14:50;8.00;;;2.90;;
55292;SDS011;41157;53.560;10.098;2023-03-31T10:17:19;8.00;;;2.73;;
55292;SDS011;41157;53.560;10.098;2023-03-31T10:19:46;6.10;;;2.73;;
55292;SDS011;41157;53.560;10.098;2023-03-31T10:22:14;7.43;;;2.47;;
55292;SDS011;41157;53.560;10.098;2023-03-31T10:24:42;5.77;;;2.90;;
55292;SDS011;41157;53.560;10.098;2023-03-31T10:27:13;8.90;;;2.90;;
55292;SDS011;41157;53.560;10.098;2023-03-31T10:29:44;8.03;;;3.10;;
55292;SDS011;41157;53.560;10.098;2023-03-31T10:32:13;8.97;;;2.93;;
55292;SDS011;41157;53.560;10.098;2023-03-31T10:34:45;7.60;;;2.87;;
55292;SDS011;41157;53.560;10.098;2023-03-31T10:37:13;6.03;;;2.90;;
55292;SDS011;41157;53.560;10.098;2023-03-31T10:39:43;6.77;;;2.87;;
55292;SDS011;41157;53.560;10.098;2023-03-31T10:42:16;5.37;;;2.90;;
55292;SDS011;41157;53.560;10.098;2023-03-31T10:44:44;7.33;;;2.97;;
55292;SDS011;41157;53.560;10.098;2023-03-31T10:47:18;8.03;;;3.13;;
55292;SDS011;41157;53.560;10.098;2023-03-31T10:49:55;12.13;;;4.10;;
55292;SDS011;41157;53.560;10.098;2023-03-31T10:52:25;8.97;;;2.80;;
55292;SDS011;41157;53.560;10.098;2023-03-31T10:54:53;8.00;;;2.90;;
55292;SDS011;41157;53.560;10.098;2023-03-31T10:57:24;5.47;;;2.70;;
55292;SDS011;41157;53.560;10.098;2023-03-31T10:59:56;8.83;;;3.00;;
55292;SDS011;41157;53.560;10.098;2023-03-31T11:02:41;5.83;;;3.00;;
55292;SDS011;41157;53.560;10.098;2023-03-31T11:05:15;8.87;;;2.90;;
55292;SDS011;41157;53.560;10.098;2023-03-31T11:07:51;4.13;;;2.50;;
55292;SDS011;41157;53.560;10.098;2023-03-31T11:10:41;8.90;;;2.90;;
55292;SDS011;41157;53.560;10.098;2023-03-31T11:13:10;6.30;;;2.50;;
55292;SDS011;41157;53.560;10.098;2023-03-31T11:15:40;8.63;;;2.67;;
55292;SDS011;41157;53.560;10.098;2023-03-31T11:18:13;8.10;;;2.83;;
55292;SDS011;41157;53.560;10.098;2023-03-31T11:20:49;6.03;;;2.50;;
55292;SDS011;41157;53.560;10.098;2023-03-31T11:23:18;5.47;;;2.50;;
55292;SDS011;41157;53.560;10.098;2023-03-31T11:25:48;8.77;;;2.73;;
55292;SDS011;41157;53.560;10.098;2023-03-31T11:28:22;6.97;;;2.50;;
55292;SDS011;41157;53.560;10.098;2023-03-31T11:30:51;5.30;;;2.33;;
55292;SDS011;41157;53.560;10.098;2023-03-31T11:33:26;4.73;;;2.20;;
55292;SDS011;41157;53.560;10.098;2023-03-31T11:36:02;9.03;;;2.30;;
55292;SDS011;41157;53.560;10.098;2023-03-31T11:38:34;2.27;;;1.97;;
55292;SDS011;41157;53.560;10.098;2023-03-31T11:41:06;6.10;;;2.23;;
55292;SDS011;41157;53.560;10.098;2023-03-31T11:43:35;8.23;;;2.57;;
55292;SDS011;41157;53.560;10.098;2023-03-31T11:46:06;8.37;;;2.40;;
55292;SDS011;41157;53.560;10.098;2023-03-31T11:48:37;4.50;;;2.27;;
55292;SDS011;41157;53.560;10.098;2023-03-31T11:51:10;5.83;;;2.50;;
55292;SDS011;41157;53.560;10.098;2023-03-31T11:53:39;6.10;;;2.60;;
55292;SDS011;41157;53.560;10.098;2023-03-31T11:56:07;3.70;;;2.30;;
55292;SDS011;41157;53.560;10.098;2023-03-31T11:58:37;5.23;;;2.40;;
55292;SDS011;41157;53.560;10.098;2023-03-31T12:01:07;5.60;;;2.57;;
55292;SDS011;41157;53.560;10.098;2023-03-31T12:03:40;5.37;;;2.63;;
55292;SDS011;41157;53.560;10.098;2023-03-31T12:06:11;4.53;;;2.60;;
55292;SDS011;41157;53.560;10.098;2023-03-31T12:08:45;5.73;;;2.87;;
55292;SDS011;41157;53.560;10.098;2023-03-31T12:11:14;5.70;;;2.50;;
55292;SDS011;41157;53.560;10.098;2023-03-31T12:13:44;5.83;;;2.57;;
55292;SDS011;41157;53.560;10.098;2023-03-31T12:16:16;7.80;;;2.30;;
55292;SDS011;41157;53.560;10.098;2023-03-31T12:18:48;10.17;;;2.70;;
55292;SDS011;41157;53.560;10.098;2023-03-31T12:21:21;8.60;;;3.10;;
55292;SDS011;41157;53.560;10.098;2023-03-31T12:23:49;6.33;;;2.57;;
55292;SDS011;41157;53.560;10.098;2023-03-31T12:26:22;7.70;;;2.97;;
55292;SDS011;41157;53.560;10.098;2023-03-31T12:28:58;6.37;;;2.43;;
55292;SDS011;41157;53.560;10.098;2023-03-31T12:31:27;9.57;;;3.03;;
55292;SDS011;41157;53.560;10.098;2023-03-31T12:33:57;6.97;;;2.50;;
55292;SDS011;41157;53.560;10.098;2023-03-31T12:36:31;10.03;;;2.77;;
55292;SDS011;41157;53.560;10.098;2023-03-31T12:39:02;7.50;;;3.03;;
55292;SDS011;41157;53.560;10.098;2023-03-31T12:41:35;5.00;;;2.67;;
55292;SDS011;41157;53.560;10.098;2023-03-31T12:44:07;6.63;;;2.57;;
55292;SDS011;41157;53.560;10.098;2023-03-31T12:46:44;5.60;;;2.90;;
55292;SDS011;41157;53.560;10.098;2023-03-31T12:49:20;6.00;;;2.40;;
55292;SDS011;41157;53.560;10.098;2023-03-31T12:51:57;6.20;;;2.60;;
55292;SDS011;41157;53.560;10.098;2023-03-31T12:54:32;5.60;;;2.37;;
55292;SDS011;41157;53.560;10.098;2023-03-31T12:57:02;5.60;;;2.30;;
55292;SDS011;41157;53.560;10.098;2023-03-31T12:59:31;4.17;;;2.30;;
55292;SDS011;41157;53.560;10.098;2023-03-31T13:02:10;4.87;;;2.60;;
55292;SDS011;41157;53.560;10.098;2023-03-31T13:04:43;7.53;;;2.37;;
55292;SDS011;41157;53.560;10.098;2023-03-31T13:07:13;3.03;;;2.33;;
55292;SDS011;41157;53.560;10.098;2023-03-31T13:10:01;5.57;;;2.30;;
55292;SDS011;41157;53.560;10.098;2023-03-31T13:12:52;4.83;;;2.53;;
55292;SDS011;41157;53.560;10.098;2023-03-31T13:15:21;3.83;;;2.43;;
55292;SDS011;41157;53.560;10.098;2023-03-31T13:17:53;5.40;;;2.53;;
55292;SDS011;41157;53.560;10.098;2023-03-31T13:20:25;5.83;;;2.73;;
55292;SDS011;41157;53.560;10.098;2023-03-31T13:22:59;3.30;;;2.37;;
55292;SDS011;41157;53.560;10.098;2023-03-31T13:25:34;7.23;;;2.57;;
55292;SDS011;41157;53.560;10.098;2023-03-31T13:28:08;6.37;;;2.60;;
55292;SDS011;41157;53.560;10.098;2023-03-31T13:30:48;5.80;;;2.57;;
55292;SDS011;41157;53.560;10.098;2023-03-31T13:33:18;4.60;;;2.40;;
55292;SDS011;41157;53.560;10.098;2023-03-31T13:35:46;5.87;;;2.97;;
55292;SDS011;41157;53.560;10.098;2023-03-31T13:38:17;5.07;;;2.67;;
55292;SDS011;41157;53.560;10.098;2023-03-31T13:40:53;7.00;;;3.03;;
55292;SDS011;41157;53.560;10.098;2023-03-31T13:46:15;6.00;;;2.73;;
55292;SDS011;41157;53.560;10.098;2023-03-31T13:48:49;4.77;;;2.83;;
55292;SDS011;41157;53.560;10.098;2023-03-31T13:51:25;5.93;;;2.40;;
55292;SDS011;41157;53.560;10.098;2023-03-31T13:56:48;4.43;;;2.47;;
55292;SDS011;41157;53.560;10.098;2023-03-31T13:59:28;6.07;;;2.43;;
55292;SDS011;41157;53.560;10.098;2023-03-31T14:02:06;4.77;;;2.30;;
55292;SDS011;41157;53.560;10.098;2023-03-31T14:04:49;4.40;;;2.20;;
55292;SDS011;41157;53.560;10.098;2023-03-31T14:07:26;5.27;;;2.30;;
55292;SDS011;41157;53.560;10.098;2023-03-31T14:09:54;4.57;;;2.70;;
55292;SDS011;41157;53.560;10.098;2023-03-31T14:12:30;5.93;;;2.40;;
55292;SDS011;41157;53.560;10.098;2023-03-31T14:14:57;7.00;;;3.03;;
55292;SDS011;41157;53.560;10.098;2023-03-31T14:17:25;4.90;;;2.20;;
55292;SDS011;41157;53.560;10.098;2023-03-31T14:20:05;3.40;;;1.97;;
55292;SDS011;41157;53.560;10.098;2023-03-31T14:22:39;3.90;;;2.10;;
55292;SDS011;41157;53.560;10.098;2023-03-31T14:25:10;3.63;;;1.97;;
55292;SDS011;41157;53.560;10.098;2023-03-31T14:27:44;3.33;;;2.00;;
55292;SDS011;41157;53.560;10.098;2023-03-31T14:30:16;3.37;;;2.30;;
55292;SDS011;41157;53.560;10.098;2023-03-31T14:32:46;2.50;;;1.77;;
55292;SDS011;41157;53.560;10.098;2023-03-31T14:35:22;4.93;;;2.03;;
55292;SDS011;41157;53.560;10.098;2023-03-31T14:37:50;1.97;;;1.80;;
55292;SDS011;41157;53.560;10.098;2023-03-31T14:40:18;4.10;;;1.97;;
55292;SDS011;41157;53.560;10.098;2023-03-31T14:42:47;2.90;;;1.80;;
55292;SDS011;41157;53.560;10.098;2023-03-31T14:45:15;2.67;;;2.03;;
55292;SDS011;41157;53.560;10.098;2023-03-31T14:47:50;3.80;;;1.70;;
55292;SDS011;41157;53.560;10.098;2023-03-31T14:50:19;1.80;;;1.60;;
55292;SDS011;41157;53.560;10.098;2023-03-31T14:52:46;2.87;;;1.93;;
55292;SDS011;41157;53.560;10.098;2023-03-31T14:55:13;3.33;;;1.80;;